sensor_id;sensor_type;location;lat;lon;timestamp;temperature;humidity
16879;DHT22;8556;52.218;9.884;2023-04-24T00:02:02;12.40;99.90
16879;DHT22;8556;52.218;9.884;2023-04-24T00:04:30;12.30;99.90
16879;DHT22;8556;52.218;9.884;2023-04-24T00:06:57;12.30;99.90
16879;DHT22;8556;52.218;9.884;2023-04-24T00:09:25;12.30;99.90
16879;DHT22;8556;52.218;9.884;2023-04-24T00:11:52;12.30;99.90
16879;DHT22;8556;52.218;9.884;2023-04-24T00:14:19;12.20;99.90
16879;DHT22;8556;52.218;9.884;2023-04-24T00:16:49;12.20;99.90
16879;DHT22;8556;52.218;9.884;2023-04-24T00:19:16;12.30;99.90
16879;DHT22;8556;52.218;9.884;2023-04-24T00:21:44;12.30;99.90
16879;DHT22;8556;52.218;9.884;2023-04-24T00:24:11;12.20;99.90
16879;DHT22;8556;52.218;9.884;2023-04-24T00:26:38;12.10;99.90
16879;DHT22;8556;52.218;9.884;2023-04-24T00:29:04;12.10;99.90
16879;DHT22;8556;52.218;9.884;2023-04-24T00:31:31;12.10;99.90
16879;DHT22;8556;52.218;9.884;2023-04-24T00:34:00;11.90;99.90
16879;DHT22;8556;52.218;9.884;2023-04-24T00:36:27;12.00;99.90
16879;DHT22;8556;52.218;9.884;2023-04-24T00:38:55;12.10;99.90
16879;DHT22;8556;52.218;9.884;2023-04-24T00:41:22;12.00;99.90
16879;DHT22;8556;52.218;9.884;2023-04-24T00:43:49;12.00;99.90
16879;DHT22;8556;52.218;9.884;2023-04-24T00:46:16;11.90;99.90
16879;DHT22;8556;52.218;9.884;2023-04-24T00:48:43;11.90;99.90
16879;DHT22;8556;52.218;9.884;2023-04-24T00:51:10;11.90;99.90
16879;DHT22;8556;52.218;9.884;2023-04-24T00:53:37;11.70;99.90
16879;DHT22;8556;52.218;9.884;2023-04-24T00:56:05;11.70;99.90
16879;DHT22;8556;52.218;9.884;2023-04-24T00:58:32;11.60;99.90
16879;DHT22;8556;52.218;9.884;2023-04-24T01:01:00;11.70;99.90
16879;DHT22;8556;52.218;9.884;2023-04-24T01:03:29;11.70;99.90
16879;DHT22;8556;52.218;9.884;2023-04-24T01:05:57;11.70;99.90
16879;DHT22;8556;52.218;9.884;2023-04-24T01:08:24;11.60;99.90
16879;DHT22;8556;52.218;9.884;2023-04-24T01:10:53;11.50;99.90
16879;DHT22;8556;52.218;9.884;2023-04-24T01:13:21;11.50;99.90
16879;DHT22;8556;52.218;9.884;2023-04-24T01:15:48;11.50;99.90
16879;DHT22;8556;52.218;9.884;2023-04-24T01:18:15;11.30;99.90
16879;DHT22;8556;52.218;9.884;2023-04-24T01:20:43;11.20;99.90
16879;DHT22;8556;52.218;9.884;2023-04-24T01:23:12;11.00;99.90
16879;DHT22;8556;52.218;9.884;2023-04-24T01:25:39;11.00;99.90
16879;DHT22;8556;52.218;9.884;2023-04-24T01:28:06;10.90;99.90
16879;DHT22;8556;52.218;9.884;2023-04-24T01:30:33;10.70;99.90
16879;DHT22;8556;52.218;9.884;2023-04-24T01:33:00;10.60;99.90
16879;DHT22;8556;52.218;9.884;2023-04-24T01:35:28;10.80;99.90
16879;DHT22;8556;52.218;9.884;2023-04-24T01:37:55;10.80;99.90
16879;DHT22;8556;52.218;9.884;2023-04-24T01:40:23;10.60;99.90
16879;DHT22;8556;52.218;9.884;2023-04-24T01:42:50;10.70;99.90
16879;DHT22;8556;52.218;9.884;2023-04-24T01:45:17;10.80;99.90
16879;DHT22;8556;52.218;9.884;2023-04-24T01:47:45;10.90;99.90
16879;DHT22;8556;52.218;9.884;2023-04-24T01:50:12;10.70;99.90
16879;DHT22;8556;52.218;9.884;2023-04-24T01:52:39;10.40;99.90
16879;DHT22;8556;52.218;9.884;2023-04-24T01:55:07;10.90;99.90
16879;DHT22;8556;52.218;9.884;2023-04-24T01:57:35;10.60;99.90
16879;DHT22;8556;52.218;9.884;2023-04-24T02:00:03;10.60;99.90
16879;DHT22;8556;52.218;9.884;2023-04-24T02:02:31;10.50;99.90
16879;DHT22;8556;52.218;9.884;2023-04-24T02:04:58;10.70;99.90
16879;DHT22;8556;52.218;9.884;2023-04-24T02:07:25;10.60;99.90
16879;DHT22;8556;52.218;9.884;2023-04-24T02:09:52;10.40;99.90
16879;DHT22;8556;52.218;9.884;2023-04-24T02:12:18;10.50;99.90
16879;DHT22;8556;52.218;9.884;2023-04-24T02:14:46;10.50;99.90
16879;DHT22;8556;52.218;9.884;2023-04-24T02:17:13;10.50;99.90
16879;DHT22;8556;52.218;9.884;2023-04-24T02:19:41;10.40;99.90
16879;DHT22;8556;52.218;9.884;2023-04-24T02:22:08;10.50;99.90
16879;DHT22;8556;52.218;9.884;2023-04-24T02:24:36;10.60;99.90
16879;DHT22;8556;52.218;9.884;2023-04-24T02:27:03;10.50;99.90
16879;DHT22;8556;52.218;9.884;2023-04-24T02:29:30;10.60;99.90
16879;DHT22;8556;52.218;9.884;2023-04-24T02:31:58;10.50;99.90
16879;DHT22;8556;52.218;9.884;2023-04-24T02:34:25;10.50;99.90
16879;DHT22;8556;52.218;9.884;2023-04-24T02:36:52;10.60;99.90
16879;DHT22;8556;52.218;9.884;2023-04-24T02:39:20;10.50;99.90
16879;DHT22;8556;52.218;9.884;2023-04-24T02:41:47;10.40;99.90
16879;DHT22;8556;52.218;9.884;2023-04-24T02:44:14;10.40;99.90
16879;DHT22;8556;52.218;9.884;2023-04-24T02:46:40;10.50;99.90
16879;DHT22;8556;52.218;9.884;2023-04-24T02:49:09;10.40;99.90
16879;DHT22;8556;52.218;9.884;2023-04-24T02:51:37;10.40;99.90
16879;DHT22;8556;52.218;9.884;2023-04-24T02:54:06;10.50;99.90
16879;DHT22;8556;52.218;9.884;2023-04-24T02:56:33;10.40;99.90
16879;DHT22;8556;52.218;9.884;2023-04-24T02:59:00;10.40;99.90
16879;DHT22;8556;52.218;9.884;2023-04-24T03:01:27;10.50;99.90
16879;DHT22;8556;52.218;9.884;2023-04-24T03:03:54;10.50;99.90
16879;DHT22;8556;52.218;9.884;2023-04-24T03:06:22;10.40;99.90
16879;DHT22;8556;52.218;9.884;2023-04-24T03:08:49;10.30;99.90
16879;DHT22;8556;52.218;9.884;2023-04-24T03:11:15;10.40;99.90
16879;DHT22;8556;52.218;9.884;2023-04-24T03:13:42;10.30;99.90
16879;DHT22;8556;52.218;9.884;2023-04-24T03:16:09;10.20;99.90
16879;DHT22;8556;52.218;9.884;2023-04-24T03:18:36;10.00;99.90
16879;DHT22;8556;52.218;9.884;2023-04-24T03:21:03;10.00;99.90
16879;DHT22;8556;52.218;9.884;2023-04-24T03:23:31;10.00;99.90
16879;DHT22;8556;52.218;9.884;2023-04-24T03:25:58;10.10;99.90
16879;DHT22;8556;52.218;9.884;2023-04-24T03:28:25;9.70;99.90
16879;DHT22;8556;52.218;9.884;2023-04-24T03:30:52;9.60;99.90
16879;DHT22;8556;52.218;9.884;2023-04-24T03:33:19;9.30;99.90
16879;DHT22;8556;52.218;9.884;2023-04-24T03:35:45;9.20;99.90
16879;DHT22;8556;52.218;9.884;2023-04-24T03:38:12;9.20;99.90
16879;DHT22;8556;52.218;9.884;2023-04-24T03:40:40;9.30;99.90
16879;DHT22;8556;52.218;9.884;2023-04-24T03:43:07;9.50;99.90
16879;DHT22;8556;52.218;9.884;2023-04-24T03:45:34;9.40;99.90
16879;DHT22;8556;52.218;9.884;2023-04-24T03:48:01;9.40;99.90
16879;DHT22;8556;52.218;9.884;2023-04-24T03:50:28;9.40;99.90
16879;DHT22;8556;52.218;9.884;2023-04-24T03:52:54;9.20;99.90
16879;DHT22;8556;52.218;9.884;2023-04-24T03:55:21;9.10;99.90
16879;DHT22;8556;52.218;9.884;2023-04-24T03:57:49;9.20;99.90
16879;DHT22;8556;52.218;9.884;2023-04-24T04:00:16;9.10;99.90
16879;DHT22;8556;52.218;9.884;2023-04-24T04:02:44;9.10;99.90
16879;DHT22;8556;52.218;9.884;2023-04-24T04:05:10;9.10;99.90
16879;DHT22;8556;52.218;9.884;2023-04-24T04:07:37;9.00;99.90
16879;DHT22;8556;52.218;9.884;2023-04-24T04:10:05;8.80;99.90
16879;DHT22;8556;52.218;9.884;2023-04-24T04:12:32;8.80;99.90
16879;DHT22;8556;52.218;9.884;2023-04-24T04:15:00;8.80;99.90
16879;DHT22;8556;52.218;9.884;2023-04-24T04:17:27;8.80;99.90
16879;DHT22;8556;52.218;9.884;2023-04-24T04:19:54;8.90;99.90
16879;DHT22;8556;52.218;9.884;2023-04-24T04:22:21;8.90;99.90
16879;DHT22;8556;52.218;9.884;2023-04-24T04:24:48;9.40;99.90
16879;DHT22;8556;52.218;9.884;2023-04-24T04:27:16;9.60;99.90
16879;DHT22;8556;52.218;9.884;2023-04-24T04:29:44;9.80;99.90
16879;DHT22;8556;52.218;9.884;2023-04-24T04:32:12;10.00;99.90
16879;DHT22;8556;52.218;9.884;2023-04-24T04:34:39;9.90;99.90
16879;DHT22;8556;52.218;9.884;2023-04-24T04:37:08;9.80;99.90
16879;DHT22;8556;52.218;9.884;2023-04-24T04:39:36;9.70;99.90
16879;DHT22;8556;52.218;9.884;2023-04-24T04:42:03;9.80;99.90
16879;DHT22;8556;52.218;9.884;2023-04-24T04:44:30;10.00;99.90
16879;DHT22;8556;52.218;9.884;2023-04-24T04:46:58;10.10;99.90
16879;DHT22;8556;52.218;9.884;2023-04-24T04:49:27;10.20;99.90
16879;DHT22;8556;52.218;9.884;2023-04-24T04:51:54;10.40;99.90
16879;DHT22;8556;52.218;9.884;2023-04-24T04:54:21;10.40;99.90
16879;DHT22;8556;52.218;9.884;2023-04-24T04:56:49;10.40;99.90
16879;DHT22;8556;52.218;9.884;2023-04-24T04:59:16;10.40;99.90
16879;DHT22;8556;52.218;9.884;2023-04-24T05:01:43;10.40;99.90
16879;DHT22;8556;52.218;9.884;2023-04-24T05:04:10;10.50;99.90
16879;DHT22;8556;52.218;9.884;2023-04-24T05:06:38;10.60;99.90
16879;DHT22;8556;52.218;9.884;2023-04-24T05:09:05;10.60;99.90
16879;DHT22;8556;52.218;9.884;2023-04-24T05:11:33;10.70;99.90
16879;DHT22;8556;52.218;9.884;2023-04-24T05:13:59;10.80;99.90
16879;DHT22;8556;52.218;9.884;2023-04-24T05:16:26;10.70;99.90
16879;DHT22;8556;52.218;9.884;2023-04-24T05:18:53;10.90;99.90
16879;DHT22;8556;52.218;9.884;2023-04-24T05:21:20;11.00;99.90
16879;DHT22;8556;52.218;9.884;2023-04-24T05:23:48;11.00;99.90
16879;DHT22;8556;52.218;9.884;2023-04-24T05:26:15;11.20;99.90
16879;DHT22;8556;52.218;9.884;2023-04-24T05:28:43;11.20;99.90
16879;DHT22;8556;52.218;9.884;2023-04-24T05:31:10;11.30;99.90
16879;DHT22;8556;52.218;9.884;2023-04-24T05:33:37;11.40;99.90
16879;DHT22;8556;52.218;9.884;2023-04-24T05:36:06;11.40;99.90
16879;DHT22;8556;52.218;9.884;2023-04-24T05:38:33;11.60;99.90
16879;DHT22;8556;52.218;9.884;2023-04-24T05:41:01;11.70;99.90
16879;DHT22;8556;52.218;9.884;2023-04-24T05:43:28;11.70;99.90
16879;DHT22;8556;52.218;9.884;2023-04-24T05:45:54;11.60;99.90
16879;DHT22;8556;52.218;9.884;2023-04-24T05:48:21;11.60;99.90
16879;DHT22;8556;52.218;9.884;2023-04-24T05:50:48;11.60;99.90
16879;DHT22;8556;52.218;9.884;2023-04-24T05:53:16;11.90;99.90
16879;DHT22;8556;52.218;9.884;2023-04-24T05:55:43;12.20;99.90
16879;DHT22;8556;52.218;9.884;2023-04-24T05:58:11;12.20;99.90
16879;DHT22;8556;52.218;9.884;2023-04-24T06:00:38;12.30;99.90
16879;DHT22;8556;52.218;9.884;2023-04-24T06:03:08;12.60;99.90
16879;DHT22;8556;52.218;9.884;2023-04-24T06:05:34;12.80;99.90
16879;DHT22;8556;52.218;9.884;2023-04-24T06:08:01;13.70;99.90
16879;DHT22;8556;52.218;9.884;2023-04-24T06:10:28;13.40;99.90
16879;DHT22;8556;52.218;9.884;2023-04-24T06:12:55;13.40;99.90
16879;DHT22;8556;52.218;9.884;2023-04-24T06:15:27;12.90;99.90
16879;DHT22;8556;52.218;9.884;2023-04-24T06:17:54;12.60;99.90
16879;DHT22;8556;52.218;9.884;2023-04-24T06:20:21;12.50;99.90
16879;DHT22;8556;52.218;9.884;2023-04-24T06:22:48;12.30;99.90
16879;DHT22;8556;52.218;9.884;2023-04-24T06:25:15;12.20;99.90
16879;DHT22;8556;52.218;9.884;2023-04-24T06:27:42;12.10;99.90
16879;DHT22;8556;52.218;9.884;2023-04-24T06:30:10;11.90;99.90
16879;DHT22;8556;52.218;9.884;2023-04-24T06:32:38;11.70;99.90
16879;DHT22;8556;52.218;9.884;2023-04-24T06:35:06;11.40;99.90
16879;DHT22;8556;52.218;9.884;2023-04-24T06:37:33;11.30;99.90
16879;DHT22;8556;52.218;9.884;2023-04-24T06:40:00;11.20;99.90
16879;DHT22;8556;52.218;9.884;2023-04-24T06:42:27;11.10;99.90
16879;DHT22;8556;52.218;9.884;2023-04-24T06:44:54;11.20;99.90
16879;DHT22;8556;52.218;9.884;2023-04-24T06:47:20;11.20;99.90
16879;DHT22;8556;52.218;9.884;2023-04-24T06:49:49;11.20;99.90
16879;DHT22;8556;52.218;9.884;2023-04-24T06:52:16;11.20;99.90
16879;DHT22;8556;52.218;9.884;2023-04-24T06:54:43;11.30;99.90
16879;DHT22;8556;52.218;9.884;2023-04-24T06:57:10;11.40;99.90
16879;DHT22;8556;52.218;9.884;2023-04-24T06:59:37;11.40;99.90
16879;DHT22;8556;52.218;9.884;2023-04-24T07:02:04;11.40;99.90
16879;DHT22;8556;52.218;9.884;2023-04-24T07:04:34;11.50;99.90
16879;DHT22;8556;52.218;9.884;2023-04-24T07:07:02;11.50;99.90
16879;DHT22;8556;52.218;9.884;2023-04-24T07:09:30;11.50;99.90
16879;DHT22;8556;52.218;9.884;2023-04-24T07:11:57;11.60;99.90
16879;DHT22;8556;52.218;9.884;2023-04-24T07:14:24;11.90;99.90
16879;DHT22;8556;52.218;9.884;2023-04-24T07:16:50;11.90;99.90
16879;DHT22;8556;52.218;9.884;2023-04-24T07:19:17;12.00;99.90
16879;DHT22;8556;52.218;9.884;2023-04-24T07:21:44;12.00;99.90
16879;DHT22;8556;52.218;9.884;2023-04-24T07:24:12;11.80;99.90
16879;DHT22;8556;52.218;9.884;2023-04-24T07:26:39;11.90;99.90
16879;DHT22;8556;52.218;9.884;2023-04-24T07:29:06;11.80;99.90
16879;DHT22;8556;52.218;9.884;2023-04-24T07:31:33;11.80;99.90
16879;DHT22;8556;52.218;9.884;2023-04-24T07:34:00;11.90;99.90
16879;DHT22;8556;52.218;9.884;2023-04-24T07:36:27;12.20;99.90
16879;DHT22;8556;52.218;9.884;2023-04-24T07:38:54;12.10;99.90
16879;DHT22;8556;52.218;9.884;2023-04-24T07:41:23;12.20;99.90
16879;DHT22;8556;52.218;9.884;2023-04-24T07:43:50;12.30;99.90
16879;DHT22;8556;52.218;9.884;2023-04-24T07:46:18;12.20;99.90
16879;DHT22;8556;52.218;9.884;2023-04-24T07:48:45;12.50;99.90
16879;DHT22;8556;52.218;9.884;2023-04-24T07:51:13;12.50;99.90
16879;DHT22;8556;52.218;9.884;2023-04-24T07:53:40;12.90;99.90
16879;DHT22;8556;52.218;9.884;2023-04-24T07:56:07;13.30;99.90
16879;DHT22;8556;52.218;9.884;2023-04-24T07:58:35;13.40;99.90
16879;DHT22;8556;52.218;9.884;2023-04-24T08:01:02;13.40;99.90
16879;DHT22;8556;52.218;9.884;2023-04-24T08:03:29;13.70;99.90
16879;DHT22;8556;52.218;9.884;2023-04-24T08:05:56;13.70;99.90
16879;DHT22;8556;52.218;9.884;2023-04-24T08:08:23;13.90;99.90
16879;DHT22;8556;52.218;9.884;2023-04-24T08:10:50;13.70;99.90
16879;DHT22;8556;52.218;9.884;2023-04-24T08:13:16;14.00;99.90
16879;DHT22;8556;52.218;9.884;2023-04-24T08:15:45;14.20;99.90
16879;DHT22;8556;52.218;9.884;2023-04-24T08:18:11;14.40;99.90
16879;DHT22;8556;52.218;9.884;2023-04-24T08:20:39;14.30;99.90
16879;DHT22;8556;52.218;9.884;2023-04-24T08:23:05;14.30;99.90
16879;DHT22;8556;52.218;9.884;2023-04-24T08:25:32;14.30;99.90
16879;DHT22;8556;52.218;9.884;2023-04-24T08:28:01;14.20;99.90
16879;DHT22;8556;52.218;9.884;2023-04-24T08:30:28;14.20;99.90
16879;DHT22;8556;52.218;9.884;2023-04-24T08:32:57;14.10;99.90
16879;DHT22;8556;52.218;9.884;2023-04-24T08:35:23;14.20;99.90
16879;DHT22;8556;52.218;9.884;2023-04-24T08:37:52;14.40;99.90
16879;DHT22;8556;52.218;9.884;2023-04-24T08:40:22;14.70;99.90
16879;DHT22;8556;52.218;9.884;2023-04-24T08:42:53;14.50;99.90
16879;DHT22;8556;52.218;9.884;2023-04-24T08:45:21;14.80;99.90
16879;DHT22;8556;52.218;9.884;2023-04-24T08:47:48;14.80;99.90
16879;DHT22;8556;52.218;9.884;2023-04-24T08:50:17;14.90;99.90
16879;DHT22;8556;52.218;9.884;2023-04-24T08:52:44;14.90;99.90
16879;DHT22;8556;52.218;9.884;2023-04-24T08:55:11;14.40;99.90
16879;DHT22;8556;52.218;9.884;2023-04-24T08:57:39;13.90;99.90
16879;DHT22;8556;52.218;9.884;2023-04-24T09:00:07;13.80;99.90
16879;DHT22;8556;52.218;9.884;2023-04-24T09:02:34;13.70;99.90
16879;DHT22;8556;52.218;9.884;2023-04-24T09:05:01;13.40;99.90
16879;DHT22;8556;52.218;9.884;2023-04-24T09:07:35;13.30;99.90
16879;DHT22;8556;52.218;9.884;2023-04-24T09:10:02;13.10;99.90
16879;DHT22;8556;52.218;9.884;2023-04-24T09:12:29;13.20;99.90
16879;DHT22;8556;52.218;9.884;2023-04-24T09:14:56;13.40;99.90
16879;DHT22;8556;52.218;9.884;2023-04-24T09:17:24;13.30;99.90
16879;DHT22;8556;52.218;9.884;2023-04-24T09:19:53;13.30;99.90
16879;DHT22;8556;52.218;9.884;2023-04-24T09:22:21;13.80;99.90
16879;DHT22;8556;52.218;9.884;2023-04-24T09:24:59;14.50;99.90
16879;DHT22;8556;52.218;9.884;2023-04-24T09:27:28;14.50;99.90
16879;DHT22;8556;52.218;9.884;2023-04-24T09:29:55;14.30;99.90
16879;DHT22;8556;52.218;9.884;2023-04-24T09:32:24;13.90;99.90
16879;DHT22;8556;52.218;9.884;2023-04-24T09:35:06;13.50;99.90
16879;DHT22;8556;52.218;9.884;2023-04-24T09:37:35;13.30;99.90
16879;DHT22;8556;52.218;9.884;2023-04-24T09:40:11;13.40;99.90
16879;DHT22;8556;52.218;9.884;2023-04-24T09:42:38;14.00;99.90
16879;DHT22;8556;52.218;9.884;2023-04-24T09:45:09;14.70;99.90
16879;DHT22;8556;52.218;9.884;2023-04-24T09:47:37;15.00;99.90
16879;DHT22;8556;52.218;9.884;2023-04-24T09:50:10;14.60;99.90
16879;DHT22;8556;52.218;9.884;2023-04-24T09:52:40;14.30;99.90
16879;DHT22;8556;52.218;9.884;2023-04-24T09:55:16;14.30;99.90
16879;DHT22;8556;52.218;9.884;2023-04-24T09:57:50;14.10;99.90
16879;DHT22;8556;52.218;9.884;2023-04-24T10:00:21;13.90;99.90
16879;DHT22;8556;52.218;9.884;2023-04-24T10:02:50;13.80;99.90
16879;DHT22;8556;52.218;9.884;2023-04-24T10:05:24;13.80;99.90
16879;DHT22;8556;52.218;9.884;2023-04-24T10:07:56;13.90;99.90
16879;DHT22;8556;52.218;9.884;2023-04-24T10:10:25;13.70;99.90
16879;DHT22;8556;52.218;9.884;2023-04-24T10:12:52;13.60;99.90
16879;DHT22;8556;52.218;9.884;2023-04-24T10:15:21;13.40;99.90
16879;DHT22;8556;52.218;9.884;2023-04-24T10:17:48;13.30;99.90
16879;DHT22;8556;52.218;9.884;2023-04-24T10:20:19;13.30;99.90
16879;DHT22;8556;52.218;9.884;2023-04-24T10:22:48;13.10;99.90
16879;DHT22;8556;52.218;9.884;2023-04-24T10:25:17;13.20;99.90
16879;DHT22;8556;52.218;9.884;2023-04-24T10:27:47;13.10;99.90
16879;DHT22;8556;52.218;9.884;2023-04-24T10:30:14;13.10;99.90
16879;DHT22;8556;52.218;9.884;2023-04-24T10:32:42;13.20;99.90
16879;DHT22;8556;52.218;9.884;2023-04-24T10:35:09;13.40;99.90
16879;DHT22;8556;52.218;9.884;2023-04-24T10:37:40;13.40;1.00
16879;DHT22;8556;52.218;9.884;2023-04-24T10:40:10;13.50;1.00
16879;DHT22;8556;52.218;9.884;2023-04-24T10:42:40;13.60;1.00
16879;DHT22;8556;52.218;9.884;2023-04-24T10:45:17;13.60;1.00
16879;DHT22;8556;52.218;9.884;2023-04-24T10:47:52;13.80;1.00
16879;DHT22;8556;52.218;9.884;2023-04-24T10:50:19;14.10;1.00
16879;DHT22;8556;52.218;9.884;2023-04-24T10:52:46;14.50;1.00
16879;DHT22;8556;52.218;9.884;2023-04-24T10:55:16;15.00;1.00
16879;DHT22;8556;52.218;9.884;2023-04-24T10:58:04;14.80;99.90
16879;DHT22;8556;52.218;9.884;2023-04-24T11:00:32;14.20;1.00
16879;DHT22;8556;52.218;9.884;2023-04-24T11:03:04;13.70;1.00
16879;DHT22;8556;52.218;9.884;2023-04-24T11:05:52;13.50;1.00
16879;DHT22;8556;52.218;9.884;2023-04-24T11:08:27;13.50;1.00
16879;DHT22;8556;52.218;9.884;2023-04-24T11:10:57;13.30;1.00
16879;DHT22;8556;52.218;9.884;2023-04-24T11:13:25;13.00;99.90
16879;DHT22;8556;52.218;9.884;2023-04-24T11:16:16;12.80;99.90
16879;DHT22;8556;52.218;9.884;2023-04-24T11:18:50;13.10;99.90
16879;DHT22;8556;52.218;9.884;2023-04-24T11:21:19;13.60;99.90
16879;DHT22;8556;52.218;9.884;2023-04-24T11:23:46;13.80;99.90
16879;DHT22;8556;52.218;9.884;2023-04-24T11:26:18;14.20;99.90
16879;DHT22;8556;52.218;9.884;2023-04-24T11:28:46;14.20;99.90
16879;DHT22;8556;52.218;9.884;2023-04-24T11:31:37;13.80;1.00
16879;DHT22;8556;52.218;9.884;2023-04-24T11:34:09;13.60;1.00
16879;DHT22;8556;52.218;9.884;2023-04-24T11:36:36;13.80;1.00
16879;DHT22;8556;52.218;9.884;2023-04-24T11:39:03;14.40;1.00
16879;DHT22;8556;52.218;9.884;2023-04-24T11:41:31;14.50;99.90
16879;DHT22;8556;52.218;9.884;2023-04-24T11:43:58;14.30;99.90
16879;DHT22;8556;52.218;9.884;2023-04-24T11:46:28;14.20;99.90
16879;DHT22;8556;52.218;9.884;2023-04-24T11:48:57;14.10;1.00
16879;DHT22;8556;52.218;9.884;2023-04-24T11:51:25;14.20;1.00
16879;DHT22;8556;52.218;9.884;2023-04-24T11:53:52;14.50;99.90
16879;DHT22;8556;52.218;9.884;2023-04-24T11:56:21;14.50;1.00
16879;DHT22;8556;52.218;9.884;2023-04-24T11:58:48;14.20;99.90
16879;DHT22;8556;52.218;9.884;2023-04-24T12:01:15;14.10;99.90
16879;DHT22;8556;52.218;9.884;2023-04-24T12:03:47;14.50;1.00
16879;DHT22;8556;52.218;9.884;2023-04-24T12:06:17;14.90;1.00
16879;DHT22;8556;52.218;9.884;2023-04-24T12:08:46;14.60;1.00
16879;DHT22;8556;52.218;9.884;2023-04-24T12:11:15;14.20;1.00
16879;DHT22;8556;52.218;9.884;2023-04-24T12:13:44;14.20;14.60
16879;DHT22;8556;52.218;9.884;2023-04-24T12:16:11;14.00;1.00
16879;DHT22;8556;52.218;9.884;2023-04-24T12:18:42;13.90;1.00
16879;DHT22;8556;52.218;9.884;2023-04-24T12:21:21;13.70;1.00
16879;DHT22;8556;52.218;9.884;2023-04-24T12:23:50;13.40;99.90
16879;DHT22;8556;52.218;9.884;2023-04-24T12:26:18;12.60;99.90
16879;DHT22;8556;52.218;9.884;2023-04-24T12:28:47;12.10;99.90
16879;DHT22;8556;52.218;9.884;2023-04-24T12:31:15;11.60;99.90
16879;DHT22;8556;52.218;9.884;2023-04-24T12:33:42;11.50;99.90
16879;DHT22;8556;52.218;9.884;2023-04-24T12:36:10;11.40;99.90
16879;DHT22;8556;52.218;9.884;2023-04-24T12:38:39;11.40;99.90
16879;DHT22;8556;52.218;9.884;2023-04-24T12:41:07;11.30;99.90
16879;DHT22;8556;52.218;9.884;2023-04-24T12:43:35;11.50;99.90
16879;DHT22;8556;52.218;9.884;2023-04-24T12:46:02;12.30;99.90
16879;DHT22;8556;52.218;9.884;2023-04-24T12:48:29;12.80;99.90
16879;DHT22;8556;52.218;9.884;2023-04-24T12:50:57;13.40;99.90
16879;DHT22;8556;52.218;9.884;2023-04-24T12:53:27;13.30;99.90
16879;DHT22;8556;52.218;9.884;2023-04-24T12:55:56;13.20;99.90
16879;DHT22;8556;52.218;9.884;2023-04-24T12:58:23;13.30;99.90
16879;DHT22;8556;52.218;9.884;2023-04-24T13:00:50;13.00;99.90
16879;DHT22;8556;52.218;9.884;2023-04-24T13:03:18;13.10;99.90
16879;DHT22;8556;52.218;9.884;2023-04-24T13:05:44;13.30;99.90
16879;DHT22;8556;52.218;9.884;2023-04-24T13:08:11;13.20;99.90
16879;DHT22;8556;52.218;9.884;2023-04-24T13:10:39;12.50;99.90
16879;DHT22;8556;52.218;9.884;2023-04-24T13:13:08;12.50;99.90
16879;DHT22;8556;52.218;9.884;2023-04-24T13:15:35;12.40;99.90
16879;DHT22;8556;52.218;9.884;2023-04-24T13:18:02;12.40;99.90
16879;DHT22;8556;52.218;9.884;2023-04-24T13:20:29;12.40;99.90
16879;DHT22;8556;52.218;9.884;2023-04-24T13:22:56;12.40;99.90
16879;DHT22;8556;52.218;9.884;2023-04-24T13:25:22;12.50;99.90
16879;DHT22;8556;52.218;9.884;2023-04-24T13:27:50;12.60;99.90
16879;DHT22;8556;52.218;9.884;2023-04-24T13:30:18;12.40;99.90
16879;DHT22;8556;52.218;9.884;2023-04-24T13:32:45;12.20;99.90
16879;DHT22;8556;52.218;9.884;2023-04-24T13:35:12;11.90;99.90
16879;DHT22;8556;52.218;9.884;2023-04-24T13:37:39;11.70;99.90
16879;DHT22;8556;52.218;9.884;2023-04-24T13:40:07;12.00;99.90
16879;DHT22;8556;52.218;9.884;2023-04-24T13:42:34;11.90;99.90
16879;DHT22;8556;52.218;9.884;2023-04-24T13:45:01;12.00;99.90
16879;DHT22;8556;52.218;9.884;2023-04-24T13:47:30;12.10;99.90
16879;DHT22;8556;52.218;9.884;2023-04-24T13:49:57;11.90;99.90
16879;DHT22;8556;52.218;9.884;2023-04-24T13:52:23;11.90;99.90
16879;DHT22;8556;52.218;9.884;2023-04-24T13:54:52;11.80;99.90
16879;DHT22;8556;52.218;9.884;2023-04-24T13:57:19;11.60;99.90
16879;DHT22;8556;52.218;9.884;2023-04-24T13:59:46;11.50;99.90
16879;DHT22;8556;52.218;9.884;2023-04-24T14:02:13;11.40;99.90
16879;DHT22;8556;52.218;9.884;2023-04-24T14:04:42;11.20;99.90
16879;DHT22;8556;52.218;9.884;2023-04-24T14:07:09;11.20;99.90
16879;DHT22;8556;52.218;9.884;2023-04-24T14:09:36;10.90;99.90
16879;DHT22;8556;52.218;9.884;2023-04-24T14:12:03;10.80;99.90
16879;DHT22;8556;52.218;9.884;2023-04-24T14:14:30;10.70;99.90
16879;DHT22;8556;52.218;9.884;2023-04-24T14:16:57;10.70;99.90
16879;DHT22;8556;52.218;9.884;2023-04-24T14:19:24;10.70;99.90
16879;DHT22;8556;52.218;9.884;2023-04-24T14:21:52;10.60;99.90
16879;DHT22;8556;52.218;9.884;2023-04-24T14:24:19;10.60;99.90
16879;DHT22;8556;52.218;9.884;2023-04-24T14:26:46;10.60;99.90
16879;DHT22;8556;52.218;9.884;2023-04-24T14:29:12;10.50;99.90
16879;DHT22;8556;52.218;9.884;2023-04-24T14:31:39;10.60;99.90
16879;DHT22;8556;52.218;9.884;2023-04-24T14:34:06;10.50;99.90
16879;DHT22;8556;52.218;9.884;2023-04-24T14:36:33;10.50;99.90
16879;DHT22;8556;52.218;9.884;2023-04-24T14:39:01;10.40;99.90
16879;DHT22;8556;52.218;9.884;2023-04-24T14:41:31;10.30;99.90
16879;DHT22;8556;52.218;9.884;2023-04-24T14:44:01;10.20;99.90
16879;DHT22;8556;52.218;9.884;2023-04-24T14:46:28;10.00;99.90
16879;DHT22;8556;52.218;9.884;2023-04-24T14:48:55;9.90;99.90
16879;DHT22;8556;52.218;9.884;2023-04-24T14:51:22;9.70;99.90
16879;DHT22;8556;52.218;9.884;2023-04-24T14:53:49;9.60;99.90
16879;DHT22;8556;52.218;9.884;2023-04-24T14:56:17;9.70;99.90
16879;DHT22;8556;52.218;9.884;2023-04-24T14:58:44;9.70;99.90
16879;DHT22;8556;52.218;9.884;2023-04-24T15:01:11;9.60;99.90
16879;DHT22;8556;52.218;9.884;2023-04-24T15:03:38;9.60;99.90
16879;DHT22;8556;52.218;9.884;2023-04-24T15:06:05;9.80;99.90
16879;DHT22;8556;52.218;9.884;2023-04-24T15:08:32;9.90;99.90
16879;DHT22;8556;52.218;9.884;2023-04-24T15:10:59;10.20;99.90
16879;DHT22;8556;52.218;9.884;2023-04-24T15:13:27;10.10;99.90
16879;DHT22;8556;52.218;9.884;2023-04-24T15:15:54;10.20;99.90
16879;DHT22;8556;52.218;9.884;2023-04-24T15:18:21;9.90;99.90
16879;DHT22;8556;52.218;9.884;2023-04-24T15:20:47;9.80;99.90
16879;DHT22;8556;52.218;9.884;2023-04-24T15:23:17;9.90;99.90
16879;DHT22;8556;52.218;9.884;2023-04-24T15:25:44;10.00;99.90
16879;DHT22;8556;52.218;9.884;2023-04-24T15:28:11;10.00;99.90
16879;DHT22;8556;52.218;9.884;2023-04-24T15:30:39;10.00;99.90
16879;DHT22;8556;52.218;9.884;2023-04-24T15:33:06;10.00;99.90
16879;DHT22;8556;52.218;9.884;2023-04-24T15:35:33;10.10;99.90
16879;DHT22;8556;52.218;9.884;2023-04-24T15:38:01;10.10;99.90
16879;DHT22;8556;52.218;9.884;2023-04-24T15:40:31;10.10;99.90
16879;DHT22;8556;52.218;9.884;2023-04-24T15:42:57;10.20;99.90
16879;DHT22;8556;52.218;9.884;2023-04-24T15:45:24;10.40;99.90
16879;DHT22;8556;52.218;9.884;2023-04-24T15:47:52;10.40;99.90
16879;DHT22;8556;52.218;9.884;2023-04-24T15:50:20;10.30;99.90
16879;DHT22;8556;52.218;9.884;2023-04-24T15:52:47;10.30;99.90
16879;DHT22;8556;52.218;9.884;2023-04-24T15:55:14;10.40;99.90